createdAt,value
2018-09-10T00:00:00.768Z,20.30
2018-09-10T00:01:04.196Z,20.40
2018-09-10T00:02:07.778Z,20.30
2018-09-10T00:03:11.152Z,20.30
2018-09-10T00:04:14.546Z,20.30
2018-09-10T00:05:18.012Z,20.30
2018-09-10T00:06:21.706Z,20.30
2018-09-10T00:07:25.209Z,20.30
2018-09-10T00:08:28.608Z,20.30
2018-09-10T00:09:32.008Z,20.30
2018-09-10T00:10:35.435Z,20.30
2018-09-10T00:11:39.451Z,20.20
2018-09-10T00:12:42.860Z,20.30
2018-09-10T00:13:46.232Z,20.30
2018-09-10T00:14:49.625Z,20.30
2018-09-10T00:15:53.091Z,20.30
2018-09-10T00:16:56.532Z,20.30
2018-09-10T00:17:59.936Z,20.30
2018-09-10T00:19:03.363Z,20.30
2018-09-10T00:20:07.216Z,20.30
2018-09-10T00:21:10.755Z,20.30
2018-09-10T00:22:14.164Z,20.30
2018-09-10T00:23:17.601Z,20.30
2018-09-10T00:24:21.120Z,20.30
2018-09-10T00:25:24.536Z,20.30
2018-09-10T00:26:27.999Z,20.30
2018-09-10T00:27:31.384Z,20.30
2018-09-10T00:28:34.787Z,20.30
2018-09-10T00:29:38.300Z,20.30
2018-09-10T00:30:41.737Z,20.30
2018-09-10T00:31:45.184Z,20.30
2018-09-10T00:32:48.603Z,20.30
2018-09-10T00:33:52.032Z,20.30
2018-09-10T00:34:55.441Z,20.30
2018-09-10T00:35:58.848Z,20.30
2018-09-10T00:37:02.231Z,20.30
2018-09-10T00:38:05.607Z,20.30
2018-09-10T00:39:12.145Z,20.30
2018-09-10T00:40:15.528Z,20.30
2018-09-10T00:41:19.108Z,20.30
2018-09-10T00:42:22.515Z,20.30
2018-09-10T00:43:25.906Z,20.30
2018-09-10T00:44:29.348Z,20.30
2018-09-10T00:45:32.728Z,20.30
2018-09-10T00:46:36.309Z,20.30
2018-09-10T00:47:39.693Z,20.20
2018-09-10T00:48:43.120Z,20.30
2018-09-10T00:49:46.521Z,20.30
2018-09-10T00:50:50.052Z,20.20
2018-09-10T00:51:53.558Z,20.20
2018-09-10T00:52:56.952Z,20.20
2018-09-10T00:54:00.553Z,20.20
2018-09-10T00:55:04.020Z,20.20
2018-09-10T00:56:07.413Z,20.20
2018-09-10T00:57:11.037Z,20.10
2018-09-10T00:58:14.589Z,20.10
2018-09-10T00:59:18.034Z,20.10
2018-09-10T01:00:21.449Z,20.10
2018-09-10T01:01:24.949Z,20.10
2018-09-10T01:02:28.332Z,20.10
2018-09-10T01:03:31.771Z,20.10
2018-09-10T01:04:35.151Z,20.10
2018-09-10T01:05:38.601Z,20.10
2018-09-10T01:06:42.028Z,20.10
2018-09-10T01:07:45.460Z,20.10
2018-09-10T01:08:48.997Z,20.10
2018-09-10T01:09:52.493Z,20.10
2018-09-10T01:10:55.944Z,20.10
2018-09-10T01:11:59.404Z,20.10
2018-09-10T01:13:02.899Z,20.10
2018-09-10T01:14:06.511Z,20.10
2018-09-10T01:15:09.948Z,20.10
2018-09-10T01:16:13.514Z,20.10
2018-09-10T01:17:16.980Z,20.00
2018-09-10T01:18:20.356Z,20.00
2018-09-10T01:19:23.785Z,20.00
2018-09-10T01:20:27.203Z,20.00
2018-09-10T01:21:30.681Z,20.00
2018-09-10T01:22:34.193Z,20.00
2018-09-10T01:23:37.604Z,20.00
2018-09-10T01:24:41.003Z,20.00
2018-09-10T01:25:44.545Z,20.00
2018-09-10T01:26:47.968Z,20.00
2018-09-10T01:27:51.356Z,20.00
2018-09-10T01:28:54.756Z,20.00
2018-09-10T01:29:58.151Z,20.00
2018-09-10T01:31:01.530Z,20.00
2018-09-10T01:32:05.076Z,20.00
2018-09-10T01:33:12.668Z,20.00
2018-09-10T01:34:21.634Z,20.00
2018-09-10T01:35:25.033Z,20.00
2018-09-10T01:36:28.477Z,20.00
2018-09-10T01:37:32.653Z,19.90
2018-09-10T01:38:36.073Z,19.90
2018-09-10T01:39:39.482Z,19.90
2018-09-10T01:40:42.916Z,19.90
2018-09-10T01:41:46.320Z,19.90
2018-09-10T01:42:49.711Z,19.90
2018-09-10T01:43:53.097Z,19.90
2018-09-10T01:44:56.785Z,20.00
2018-09-10T01:46:00.435Z,19.90
2018-09-10T01:47:03.967Z,19.90
2018-09-10T01:48:07.449Z,19.90
2018-09-10T01:49:10.880Z,19.90
2018-09-10T01:50:14.580Z,19.90
2018-09-10T01:51:18.028Z,19.90
2018-09-10T01:52:21.418Z,19.90
2018-09-10T01:53:24.799Z,19.90
2018-09-10T01:54:28.217Z,19.90
2018-09-10T01:55:31.788Z,19.90
2018-09-10T01:56:35.300Z,19.90
2018-09-10T01:57:38.715Z,19.90
2018-09-10T01:58:42.241Z,19.90
2018-09-10T01:59:45.654Z,19.90
2018-09-10T02:00:49.121Z,19.90
2018-09-10T02:01:52.500Z,19.90
2018-09-10T02:02:56.021Z,19.90
2018-09-10T02:03:59.422Z,19.90
2018-09-10T02:05:02.811Z,19.80
2018-09-10T02:06:06.328Z,19.90
2018-09-10T02:07:09.796Z,19.80
2018-09-10T02:08:13.388Z,19.80
2018-09-10T02:09:16.818Z,19.80
2018-09-10T02:10:20.277Z,19.80
2018-09-10T02:11:23.692Z,19.80
2018-09-10T02:12:27.166Z,19.80
2018-09-10T02:13:30.550Z,19.80
2018-09-10T02:14:33.976Z,19.80
2018-09-10T02:15:42.628Z,19.80
2018-09-10T02:16:46.072Z,19.70
2018-09-10T02:17:49.452Z,19.70
2018-09-10T02:18:52.903Z,19.70
2018-09-10T02:19:56.387Z,19.70
2018-09-10T02:20:59.799Z,19.70
2018-09-10T02:22:03.252Z,19.70
2018-09-10T02:23:06.745Z,19.70
2018-09-10T02:24:10.177Z,19.70
2018-09-10T02:25:13.575Z,19.60
2018-09-10T02:26:17.041Z,19.70
2018-09-10T02:27:20.493Z,19.70
2018-09-10T02:28:23.959Z,19.70
2018-09-10T02:29:27.339Z,19.70
2018-09-10T02:30:30.770Z,19.60
2018-09-10T02:31:34.188Z,19.60
2018-09-10T02:32:37.622Z,19.60
2018-09-10T02:33:40.999Z,19.60
2018-09-10T02:34:44.481Z,19.60
2018-09-10T02:35:47.863Z,19.60
2018-09-10T02:36:51.273Z,19.60
2018-09-10T02:37:54.736Z,19.60
2018-09-10T02:38:58.186Z,19.60
2018-09-10T02:40:01.620Z,19.60
2018-09-10T02:41:05.307Z,19.60
2018-09-10T02:42:08.716Z,19.50
2018-09-10T02:43:12.105Z,19.50
2018-09-10T02:44:15.565Z,19.50
2018-09-10T02:45:18.972Z,19.50
2018-09-10T02:46:22.488Z,19.50
2018-09-10T02:47:25.979Z,19.50
2018-09-10T02:48:29.449Z,19.50
2018-09-10T02:49:32.828Z,19.50
2018-09-10T02:50:36.320Z,19.50
2018-09-10T02:51:39.741Z,19.50
2018-09-10T02:52:43.120Z,19.50
2018-09-10T02:53:46.559Z,19.50
2018-09-10T02:54:49.969Z,19.50
2018-09-10T02:55:53.352Z,19.50
2018-09-10T02:56:56.787Z,19.50
2018-09-10T02:58:00.217Z,19.40
2018-09-10T02:59:03.657Z,19.40
2018-09-10T03:00:08.319Z,19.40
2018-09-10T03:01:11.740Z,19.40
2018-09-10T03:02:15.250Z,19.40
2018-09-10T03:03:18.619Z,19.40
2018-09-10T03:04:22.128Z,19.40
2018-09-10T03:05:25.522Z,19.40
2018-09-10T03:06:29.239Z,19.30
2018-09-10T03:07:32.779Z,19.30
2018-09-10T03:08:36.224Z,19.30
2018-09-10T03:09:39.591Z,19.30
2018-09-10T03:10:43.104Z,19.30
2018-09-10T03:11:46.588Z,19.30
2018-09-10T03:12:50.776Z,19.30
2018-09-10T03:13:54.249Z,19.30
2018-09-10T03:14:57.689Z,19.30
2018-09-10T03:16:01.064Z,19.30
2018-09-10T03:17:04.488Z,19.30
2018-09-10T03:18:08.025Z,19.30
2018-09-10T03:19:11.404Z,19.30
2018-09-10T03:20:14.812Z,19.30
2018-09-10T03:21:18.244Z,19.30
2018-09-10T03:22:21.664Z,19.30
2018-09-10T03:23:25.084Z,19.30
2018-09-10T03:24:28.624Z,19.30
2018-09-10T03:25:31.991Z,19.30
2018-09-10T03:26:35.524Z,19.30
2018-09-10T03:27:39.060Z,19.30
2018-09-10T03:28:42.477Z,19.30
2018-09-10T03:29:46.240Z,19.30
2018-09-10T03:30:49.860Z,19.30
2018-09-10T03:31:53.249Z,19.30
2018-09-10T03:32:56.667Z,19.30
2018-09-10T03:34:00.080Z,19.30
2018-09-10T03:35:03.487Z,19.30
2018-09-10T03:36:06.909Z,19.30
2018-09-10T03:37:10.293Z,19.30
2018-09-10T03:38:13.716Z,19.30
2018-09-10T03:39:17.185Z,19.30
2018-09-10T03:40:20.604Z,19.30
2018-09-10T03:41:24.004Z,19.30
2018-09-10T03:42:27.393Z,19.30
2018-09-10T03:43:30.797Z,19.30
2018-09-10T03:44:34.248Z,19.30
2018-09-10T03:45:37.633Z,19.30
2018-09-10T03:46:41.064Z,19.30
2018-09-10T03:47:44.449Z,19.30
2018-09-10T03:48:48.001Z,19.30
2018-09-10T03:49:51.436Z,19.30
2018-09-10T03:50:55.060Z,19.30
2018-09-10T03:51:58.635Z,19.30
2018-09-10T03:53:02.168Z,19.20
2018-09-10T03:54:05.596Z,19.30
2018-09-10T03:55:09.053Z,19.30
2018-09-10T03:56:12.473Z,19.30
2018-09-10T03:57:15.888Z,19.30
2018-09-10T03:58:19.272Z,19.30
2018-09-10T03:59:22.660Z,19.30
2018-09-10T04:00:26.064Z,19.30
2018-09-10T04:01:29.457Z,19.30
2018-09-10T04:02:32.920Z,19.30
2018-09-10T04:03:36.325Z,19.30
2018-09-10T04:04:39.707Z,19.30
2018-09-10T04:05:43.126Z,19.30
2018-09-10T04:06:46.528Z,19.30
2018-09-10T04:07:49.931Z,19.30
2018-09-10T04:08:53.396Z,19.30
2018-09-10T04:09:56.778Z,19.30
2018-09-10T04:11:00.298Z,19.30
2018-09-10T04:12:03.700Z,19.30
2018-09-10T04:13:07.168Z,19.30
2018-09-10T04:14:10.553Z,19.30
2018-09-10T04:15:14.028Z,19.30
2018-09-10T04:16:17.485Z,19.30
2018-09-10T04:17:20.936Z,19.30
2018-09-10T04:18:24.861Z,19.30
2018-09-10T04:19:28.332Z,19.30
2018-09-10T04:20:31.724Z,19.30
2018-09-10T04:21:35.164Z,19.30
2018-09-10T04:22:39.880Z,19.30
2018-09-10T04:23:43.284Z,19.30
2018-09-10T04:24:46.680Z,19.30
2018-09-10T04:25:50.133Z,19.30
2018-09-10T04:26:53.602Z,19.30
2018-09-10T04:27:57.121Z,19.30
2018-09-10T04:29:00.525Z,19.30
2018-09-10T04:30:04.392Z,19.30
2018-09-10T04:31:07.835Z,19.30
2018-09-10T04:32:11.360Z,19.30
2018-09-10T04:33:14.833Z,19.30
2018-09-10T04:34:18.228Z,19.30
2018-09-10T04:35:21.608Z,19.30
2018-09-10T04:36:25.053Z,19.30
2018-09-10T04:37:28.475Z,19.30
2018-09-10T04:38:31.891Z,19.30
2018-09-10T04:39:35.354Z,19.30
2018-09-10T04:40:38.734Z,19.30
2018-09-10T04:41:43.096Z,19.30
2018-09-10T04:42:46.556Z,19.30
2018-09-10T04:43:49.948Z,19.20
2018-09-10T04:44:53.329Z,19.20
2018-09-10T04:45:56.711Z,19.20
2018-09-10T04:47:00.147Z,19.20
2018-09-10T04:48:03.557Z,19.20
2018-09-10T04:49:07.603Z,19.20
2018-09-10T04:50:11.033Z,19.20
2018-09-10T04:51:14.461Z,19.20
2018-09-10T04:52:17.856Z,19.20
2018-09-10T04:53:21.275Z,19.20
2018-09-10T04:54:24.666Z,19.20
2018-09-10T04:55:28.079Z,19.20
2018-09-10T04:56:31.716Z,19.20
2018-09-10T04:57:35.135Z,19.20
2018-09-10T04:58:38.556Z,19.20
2018-09-10T04:59:41.960Z,19.20
2018-09-10T05:00:45.417Z,19.20
2018-09-10T05:01:48.800Z,19.20
2018-09-10T05:02:52.269Z,19.20
2018-09-10T05:03:55.679Z,19.20
2018-09-10T05:04:59.081Z,19.20
2018-09-10T05:06:02.527Z,19.20
2018-09-10T05:07:06.072Z,19.20
2018-09-10T05:08:09.472Z,19.30
2018-09-10T05:09:12.940Z,19.20
2018-09-10T05:10:16.329Z,19.30
2018-09-10T05:11:19.867Z,19.30
2018-09-10T05:12:23.449Z,19.30
2018-09-10T05:13:26.901Z,19.30
2018-09-10T05:14:30.297Z,19.20
2018-09-10T05:15:34.352Z,19.30
2018-09-10T05:16:37.856Z,19.30
2018-09-10T05:17:41.296Z,19.30
2018-09-10T05:18:44.672Z,19.30
2018-09-10T05:19:48.325Z,19.30
2018-09-10T05:20:51.707Z,19.20
2018-09-10T05:21:55.201Z,19.30
2018-09-10T05:22:58.578Z,19.20
2018-09-10T05:24:01.980Z,19.30
2018-09-10T05:25:05.379Z,19.20
2018-09-10T05:26:08.797Z,19.20
2018-09-10T05:27:12.204Z,19.30
2018-09-10T05:28:15.714Z,19.30
2018-09-10T05:29:19.153Z,19.30
2018-09-10T05:30:22.541Z,19.30
2018-09-10T05:31:25.993Z,19.30
2018-09-10T05:32:29.484Z,19.30
2018-09-10T05:33:33.001Z,19.30
2018-09-10T05:34:36.434Z,19.30
2018-09-10T05:35:39.877Z,19.30
2018-09-10T05:36:43.315Z,19.30
2018-09-10T05:37:46.776Z,19.30
2018-09-10T05:38:50.247Z,19.30
2018-09-10T05:39:53.637Z,19.30
2018-09-10T05:40:57.131Z,19.30
2018-09-10T05:42:00.587Z,19.30
2018-09-10T05:43:03.971Z,19.30
2018-09-10T05:44:07.430Z,19.30
2018-09-10T05:45:12.058Z,19.30
2018-09-10T05:46:15.507Z,19.30
2018-09-10T05:47:18.971Z,19.40
2018-09-10T05:48:22.447Z,19.30
2018-09-10T05:49:25.845Z,19.30
2018-09-10T05:50:29.228Z,19.40
2018-09-10T05:51:32.670Z,19.40
2018-09-10T05:52:36.133Z,19.40
2018-09-10T05:53:39.545Z,19.40
2018-09-10T05:54:43.280Z,19.40
2018-09-10T05:55:46.725Z,19.40
2018-09-10T05:56:50.120Z,19.40
2018-09-10T05:57:53.680Z,19.40
2018-09-10T05:58:57.231Z,19.40
2018-09-10T06:00:00.696Z,19.40
2018-09-10T06:01:04.091Z,19.40
2018-09-10T06:02:07.579Z,19.40
2018-09-10T06:03:11.536Z,19.40
2018-09-10T06:04:14.980Z,19.50
2018-09-10T06:05:18.359Z,19.50
2018-09-10T06:06:21.757Z,19.40
2018-09-10T06:07:25.162Z,19.50
2018-09-10T06:08:28.711Z,19.50
2018-09-10T06:09:32.123Z,19.50
2018-09-10T06:10:35.520Z,19.50
2018-09-10T06:11:38.928Z,19.50
2018-09-10T06:12:42.308Z,19.50
2018-09-10T06:13:45.717Z,19.50
2018-09-10T06:14:49.274Z,19.50
2018-09-10T06:15:52.877Z,19.50
2018-09-10T06:16:56.324Z,19.50
2018-09-10T06:17:59.748Z,19.50
2018-09-10T06:19:03.398Z,19.60
2018-09-10T06:20:06.865Z,19.60
2018-09-10T06:21:10.242Z,19.50
2018-09-10T06:22:13.788Z,19.60
2018-09-10T06:23:17.197Z,19.60
2018-09-10T06:24:20.699Z,19.60
2018-09-10T06:25:24.110Z,19.60
2018-09-10T06:26:27.974Z,19.60
2018-09-10T06:27:31.417Z,19.60
2018-09-10T06:28:34.998Z,19.60
2018-09-10T06:29:38.428Z,19.60
2018-09-10T06:30:41.812Z,19.50
2018-09-10T06:31:45.228Z,19.60
2018-09-10T06:32:48.862Z,19.50
2018-09-10T06:33:53.109Z,19.50
2018-09-10T06:34:56.610Z,19.50
2018-09-10T06:36:00.016Z,19.50
2018-09-10T06:37:03.418Z,19.50
2018-09-10T06:38:06.851Z,19.50
2018-09-10T06:39:11.828Z,19.50
2018-09-10T06:40:15.240Z,19.50
2018-09-10T06:41:18.657Z,19.50
2018-09-10T06:42:22.048Z,19.60
2018-09-10T06:43:25.453Z,19.60
2018-09-10T06:44:29.458Z,19.60
2018-09-10T06:45:32.876Z,19.60
2018-09-10T06:46:36.253Z,19.60
2018-09-10T06:47:39.685Z,19.60
2018-09-10T06:48:43.168Z,19.70
2018-09-10T06:49:46.554Z,19.70
2018-09-10T06:50:49.993Z,19.70
2018-09-10T06:51:53.412Z,19.70
2018-09-10T06:52:56.809Z,19.70
2018-09-10T06:54:00.203Z,19.70
2018-09-10T06:55:03.609Z,19.70
2018-09-10T06:56:07.895Z,19.70
2018-09-10T06:57:11.555Z,19.70
2018-09-10T06:58:15.039Z,19.80
2018-09-10T06:59:19.136Z,19.80
2018-09-10T07:00:23.093Z,19.80
2018-09-10T07:01:26.443Z,19.80
2018-09-10T07:02:29.880Z,19.80
2018-09-10T07:03:33.256Z,19.90
2018-09-10T07:04:36.701Z,19.90
2018-09-10T07:05:40.241Z,19.90
2018-09-10T07:06:43.688Z,19.90
2018-09-10T07:07:47.233Z,19.90
2018-09-10T07:08:50.722Z,19.90
2018-09-10T07:09:54.172Z,20.00
2018-09-10T07:10:57.560Z,19.90
2018-09-10T07:12:01.012Z,20.00
2018-09-10T07:13:04.438Z,20.00
2018-09-10T07:14:07.972Z,20.00
2018-09-10T07:15:14.528Z,20.00
2018-09-10T07:16:17.965Z,20.00
2018-09-10T07:17:21.385Z,20.00
2018-09-10T07:18:24.808Z,20.10
2018-09-10T07:19:29.463Z,20.00
2018-09-10T07:20:32.916Z,20.00
2018-09-10T07:21:36.360Z,20.00
2018-09-10T07:22:39.705Z,20.00
2018-09-10T07:23:43.183Z,20.00
2018-09-10T07:24:46.921Z,20.00
2018-09-10T07:25:50.792Z,20.10
2018-09-10T07:26:54.191Z,20.10
2018-09-10T07:27:59.096Z,20.10
2018-09-10T07:29:02.494Z,20.10
2018-09-10T07:30:06.793Z,20.10
2018-09-10T07:31:10.186Z,20.10
2018-09-10T07:32:13.576Z,20.10
2018-09-10T07:33:17.005Z,20.10
2018-09-10T07:34:20.560Z,20.20
2018-09-10T07:35:23.953Z,20.20
2018-09-10T07:36:27.323Z,20.20
2018-09-10T07:37:30.745Z,20.20
2018-09-10T07:38:34.145Z,20.20
2018-09-10T07:39:37.595Z,20.20
2018-09-10T07:40:41.487Z,20.20
2018-09-10T07:41:45.014Z,20.20
2018-09-10T07:42:48.417Z,20.20
2018-09-10T07:43:52.077Z,20.20
2018-09-10T07:44:55.409Z,20.30
2018-09-10T07:45:58.788Z,20.30
2018-09-10T07:47:02.285Z,20.20
2018-09-10T07:48:06.232Z,20.30
2018-09-10T07:49:09.649Z,20.30
2018-09-10T07:50:13.064Z,20.30
2018-09-10T07:51:16.468Z,20.30
2018-09-10T07:52:19.863Z,20.40
2018-09-10T07:53:23.287Z,20.40
2018-09-10T07:54:26.747Z,20.40
2018-09-10T07:55:30.220Z,20.40
2018-09-10T07:56:33.616Z,20.40
2018-09-10T07:57:37.034Z,20.50
2018-09-10T07:58:40.540Z,20.50
2018-09-10T07:59:43.962Z,20.50
2018-09-10T08:00:47.418Z,20.50
2018-09-10T08:01:50.822Z,20.50
2018-09-10T08:02:54.337Z,20.50
2018-09-10T08:03:57.676Z,20.50
2018-09-10T08:05:01.136Z,20.50
2018-09-10T08:06:04.515Z,20.50
2018-09-10T08:07:07.932Z,20.50
2018-09-10T08:08:11.383Z,20.50
2018-09-10T08:09:14.865Z,20.50
2018-09-10T08:10:18.247Z,20.50
2018-09-10T08:11:21.753Z,20.50
2018-09-10T08:12:25.144Z,20.50
2018-09-10T08:13:28.536Z,20.50
2018-09-10T08:14:32.052Z,20.50
2018-09-10T08:15:35.445Z,20.40
2018-09-10T08:16:38.921Z,20.40
2018-09-10T08:17:42.284Z,20.40
2018-09-10T08:18:45.705Z,20.40
2018-09-10T08:19:49.151Z,20.40
2018-09-10T08:20:52.589Z,20.30
2018-09-10T08:21:55.976Z,20.30
2018-09-10T08:22:59.517Z,20.30
2018-09-10T08:24:02.950Z,20.30
2018-09-10T08:25:06.459Z,20.30
2018-09-10T08:26:09.840Z,20.30
2018-09-10T08:27:13.269Z,20.20
2018-09-10T08:28:16.684Z,20.30
2018-09-10T08:29:20.113Z,20.20
2018-09-10T08:30:23.500Z,20.20
2018-09-10T08:31:27.079Z,20.20
2018-09-10T08:32:30.475Z,20.20
2018-09-10T08:33:33.848Z,20.30
2018-09-10T08:34:37.256Z,20.30
2018-09-10T08:35:40.635Z,20.30
2018-09-10T08:36:44.039Z,20.30
2018-09-10T08:37:47.488Z,20.30
2018-09-10T08:38:50.927Z,20.30
2018-09-10T08:39:54.300Z,20.30
2018-09-10T08:40:58.475Z,20.30
2018-09-10T08:42:01.964Z,20.30
2018-09-10T08:43:05.781Z,20.40
2018-09-10T08:44:09.188Z,20.40
2018-09-10T08:45:12.688Z,20.40
2018-09-10T08:46:16.085Z,20.40
2018-09-10T08:47:19.493Z,20.40
2018-09-10T08:48:23.065Z,20.40
2018-09-10T08:49:26.551Z,20.40
2018-09-10T08:50:29.935Z,20.40
2018-09-10T08:51:33.365Z,20.50
2018-09-10T08:52:36.784Z,20.50
2018-09-10T08:53:40.161Z,20.50
2018-09-10T08:54:43.818Z,20.50
2018-09-10T08:55:47.232Z,20.60
2018-09-10T08:56:50.424Z,20.60
2018-09-10T08:57:53.837Z,20.60
2018-09-10T08:58:57.261Z,20.60
2018-09-10T09:00:00.664Z,20.70
2018-09-10T09:01:04.120Z,20.70
2018-09-10T09:02:07.600Z,20.70
2018-09-10T09:03:11.099Z,20.70
2018-09-10T09:04:14.538Z,20.80
2018-09-10T09:05:17.969Z,20.80
2018-09-10T09:06:21.420Z,20.80
2018-09-10T09:07:24.865Z,20.80
2018-09-10T09:08:28.273Z,20.80
2018-09-10T09:09:31.676Z,20.80
2018-09-10T09:10:35.096Z,20.80
2018-09-10T09:11:38.580Z,20.80
2018-09-10T09:12:42.023Z,20.80
2018-09-10T09:13:45.460Z,20.80
2018-09-10T09:14:48.859Z,20.80
2018-09-10T09:15:52.950Z,20.80
2018-09-10T09:16:56.396Z,20.80
2018-09-10T09:17:59.776Z,20.80
2018-09-10T09:19:03.180Z,20.80
2018-09-10T09:20:06.705Z,20.80
2018-09-10T09:21:10.637Z,20.80
2018-09-10T09:22:14.021Z,20.90
2018-09-10T09:23:17.618Z,20.90
2018-09-10T09:24:20.904Z,20.90
2018-09-10T09:25:24.364Z,20.90
2018-09-10T09:26:27.863Z,21.00
2018-09-10T09:27:31.398Z,20.90
2018-09-10T09:28:34.780Z,21.00
2018-09-10T09:29:38.242Z,21.00
2018-09-10T09:30:41.613Z,21.00
2018-09-10T09:31:45.019Z,21.00
2018-09-10T09:32:48.623Z,21.00
2018-09-10T09:33:52.116Z,21.00
2018-09-10T09:34:56.104Z,21.00
2018-09-10T09:36:04.826Z,21.00
2018-09-10T09:38:14.060Z,21.00
2018-09-10T09:39:22.823Z,21.00
2018-09-10T09:40:31.709Z,21.00
2018-09-10T09:41:40.449Z,21.00
2018-09-10T09:42:49.287Z,21.00
2018-09-10T09:43:58.218Z,21.00
2018-09-10T09:45:07.011Z,21.00
2018-09-10T09:46:12.788Z,21.00
2018-09-10T09:47:16.173Z,21.00
2018-09-10T09:48:19.583Z,21.00
2018-09-10T09:49:22.983Z,21.00
2018-09-10T09:50:26.372Z,21.00
2018-09-10T09:51:29.827Z,21.00
2018-09-10T09:52:33.280Z,21.00
2018-09-10T09:53:37.144Z,21.00
2018-09-10T09:54:40.540Z,21.10
2018-09-10T09:55:44.007Z,21.00
2018-09-10T09:56:47.416Z,21.00
2018-09-10T09:57:50.844Z,21.10
2018-09-10T09:58:54.260Z,21.00
2018-09-10T09:59:57.716Z,21.00
2018-09-10T10:01:06.425Z,21.00
2018-09-10T10:02:15.158Z,21.10
2018-09-10T10:03:22.971Z,21.10
2018-09-10T10:04:26.395Z,21.10
2018-09-10T10:05:29.852Z,21.20
2018-09-10T10:06:33.277Z,21.20
2018-09-10T10:07:36.664Z,21.20
2018-09-10T10:08:40.156Z,21.20
2018-09-10T10:09:43.784Z,21.20
2018-09-10T10:10:47.323Z,21.30
2018-09-10T10:11:50.830Z,21.30
2018-09-10T10:12:54.140Z,21.40
2018-09-10T10:13:57.559Z,21.40
2018-09-10T10:15:00.988Z,21.50
2018-09-10T10:16:04.399Z,21.50
2018-09-10T10:17:07.816Z,21.50
2018-09-10T10:18:11.312Z,21.50
2018-09-10T10:19:14.700Z,21.50
2018-09-10T10:20:18.105Z,21.50
2018-09-10T10:21:21.511Z,21.50
2018-09-10T10:22:24.941Z,21.60
2018-09-10T10:23:28.316Z,21.60
2018-09-10T10:24:31.932Z,21.60
2018-09-10T10:25:35.408Z,21.60
2018-09-10T10:26:38.816Z,21.60
2018-09-10T10:27:42.491Z,21.60
2018-09-10T10:28:45.923Z,21.60
2018-09-10T10:29:49.364Z,21.60
2018-09-10T10:30:52.787Z,21.60
2018-09-10T10:31:56.318Z,21.60
2018-09-10T10:32:59.704Z,21.60
2018-09-10T10:34:03.103Z,21.70
2018-09-10T10:35:06.732Z,21.70
2018-09-10T10:36:10.105Z,21.70
2018-09-10T10:37:13.513Z,21.70
2018-09-10T10:38:16.957Z,21.70
2018-09-10T10:39:20.489Z,21.70
2018-09-10T10:40:23.757Z,21.70
2018-09-10T10:41:27.173Z,21.70
2018-09-10T10:42:30.676Z,21.80
2018-09-10T10:43:34.089Z,21.80
2018-09-10T10:44:37.588Z,21.80
2018-09-10T10:45:41.012Z,21.90
2018-09-10T10:46:44.409Z,21.90
2018-09-10T10:47:47.832Z,21.90
2018-09-10T10:48:51.232Z,21.90
2018-09-10T10:49:54.641Z,21.90
2018-09-10T10:50:58.096Z,21.90
2018-09-10T10:52:01.562Z,21.90
2018-09-10T10:53:04.992Z,22.00
2018-09-10T10:54:08.412Z,22.10
2018-09-10T10:55:11.883Z,22.10
2018-09-10T10:56:15.280Z,22.20
2018-09-10T10:57:18.717Z,22.20
2018-09-10T10:58:22.160Z,22.20
2018-09-10T10:59:25.623Z,22.20
2018-09-10T11:00:29.099Z,22.30
2018-09-10T11:01:32.494Z,22.30
2018-09-10T11:02:35.912Z,22.30
2018-09-10T11:03:39.484Z,22.40
2018-09-10T11:04:42.889Z,22.50
2018-09-10T11:05:46.311Z,22.50
2018-09-10T11:06:50.121Z,22.50
2018-09-10T11:07:53.516Z,22.50
2018-09-10T11:08:57.044Z,22.60
2018-09-10T11:10:00.520Z,22.60
2018-09-10T11:11:03.900Z,22.60
2018-09-10T11:12:07.029Z,22.60
2018-09-10T11:13:10.552Z,22.60
2018-09-10T11:14:13.931Z,22.60
2018-09-10T11:15:17.564Z,22.60
2018-09-10T11:16:21.000Z,22.60
2018-09-10T11:17:24.488Z,22.60
2018-09-10T11:18:27.863Z,22.70
2018-09-10T11:19:31.417Z,22.70
2018-09-10T11:20:34.796Z,22.70
2018-09-10T11:21:38.220Z,22.70
2018-09-10T11:22:41.635Z,22.80
2018-09-10T11:23:45.020Z,22.80
2018-09-10T11:24:48.436Z,22.80
2018-09-10T11:25:51.889Z,22.80
2018-09-10T11:26:55.375Z,22.80
2018-09-10T11:27:58.760Z,22.90
2018-09-10T11:29:02.201Z,22.90
2018-09-10T11:30:06.108Z,22.90
2018-09-10T11:31:09.541Z,22.90
2018-09-10T11:32:13.224Z,23.00
2018-09-10T11:33:16.628Z,23.00
2018-09-10T11:34:26.808Z,23.00
2018-09-10T11:35:30.299Z,23.00
2018-09-10T11:36:33.688Z,23.10
2018-09-10T11:37:37.342Z,23.10
2018-09-10T11:38:40.805Z,23.10
2018-09-10T11:39:44.269Z,23.10
2018-09-10T11:40:47.660Z,23.10
2018-09-10T11:41:51.319Z,23.20
2018-09-10T11:42:54.725Z,23.20
2018-09-10T11:43:58.107Z,23.20
2018-09-10T11:45:01.565Z,23.20
2018-09-10T11:46:05.030Z,23.20
2018-09-10T11:47:08.442Z,23.20
2018-09-10T11:48:11.880Z,23.20
2018-09-10T11:49:15.289Z,23.20
2018-09-10T11:50:18.675Z,23.20
2018-09-10T11:51:22.151Z,23.20
2018-09-10T11:52:25.619Z,23.20
2018-09-10T11:53:29.040Z,23.20
2018-09-10T11:54:32.486Z,23.20
2018-09-10T11:55:36.093Z,23.20
2018-09-10T11:56:39.414Z,23.20
2018-09-10T11:57:42.925Z,23.10
2018-09-10T11:58:46.324Z,23.20
2018-09-10T11:59:49.751Z,23.20
2018-09-10T12:00:53.199Z,23.20
2018-09-10T12:01:56.741Z,23.20
2018-09-10T12:03:00.111Z,23.20
2018-09-10T12:04:03.537Z,23.20
2018-09-10T12:05:06.992Z,23.30
2018-09-10T12:06:10.428Z,23.30
2018-09-10T12:07:13.882Z,23.30
2018-09-10T12:08:17.384Z,23.30
2018-09-10T12:09:20.756Z,23.30
2018-09-10T12:10:24.152Z,23.30
2018-09-10T12:11:27.539Z,23.40
2018-09-10T12:12:30.972Z,23.40
2018-09-10T12:13:34.452Z,23.40
2018-09-10T12:14:37.804Z,23.40
2018-09-10T12:15:41.192Z,23.50
2018-09-10T12:16:44.653Z,23.50
2018-09-10T12:17:48.080Z,23.50
2018-09-10T12:18:51.473Z,23.50
2018-09-10T12:19:55.056Z,23.60
2018-09-10T12:20:58.521Z,23.60
2018-09-10T12:22:01.944Z,23.60
2018-09-10T12:23:05.628Z,23.60
2018-09-10T12:24:09.037Z,23.70
2018-09-10T12:25:12.436Z,23.70
2018-09-10T12:26:16.036Z,23.70
2018-09-10T12:27:19.431Z,23.70
2018-09-10T12:28:22.848Z,23.70
2018-09-10T12:29:26.268Z,23.70
2018-09-10T12:30:29.716Z,23.70
2018-09-10T12:31:33.149Z,23.70
2018-09-10T12:32:36.648Z,23.70
2018-09-10T12:33:40.052Z,23.70
2018-09-10T12:34:43.471Z,23.70
2018-09-10T12:35:46.964Z,23.80
2018-09-10T12:36:50.389Z,23.70
2018-09-10T12:37:53.887Z,23.70
2018-09-10T12:38:57.419Z,23.70
2018-09-10T12:40:03.880Z,23.70
2018-09-10T12:41:07.288Z,23.70
2018-09-10T12:42:10.669Z,23.70
2018-09-10T12:43:14.077Z,23.70
2018-09-10T12:44:17.504Z,23.60
2018-09-10T12:45:20.952Z,23.60
2018-09-10T12:46:24.369Z,23.60
2018-09-10T12:47:27.815Z,23.60
2018-09-10T12:48:31.226Z,23.60
2018-09-10T12:49:34.689Z,23.60
2018-09-10T12:50:38.225Z,23.60
2018-09-10T12:51:41.653Z,23.60
2018-09-10T12:52:45.149Z,23.60
2018-09-10T12:53:48.527Z,23.60
2018-09-10T12:54:51.974Z,23.60
2018-09-10T12:55:55.352Z,23.60
2018-09-10T12:56:58.939Z,23.60
2018-09-10T12:58:02.319Z,23.60
2018-09-10T12:59:05.776Z,23.60
2018-09-10T13:00:09.252Z,23.60
2018-09-10T13:01:12.731Z,23.60
2018-09-10T13:02:16.164Z,23.60
2018-09-10T13:03:19.739Z,23.60
2018-09-10T13:04:23.144Z,23.60
2018-09-10T13:05:26.692Z,23.60
2018-09-10T13:06:30.113Z,23.50
2018-09-10T13:07:33.540Z,23.50
2018-09-10T13:08:36.924Z,23.60
2018-09-10T13:09:40.332Z,23.60
2018-09-10T13:10:43.793Z,23.60
2018-09-10T13:11:47.277Z,23.60
2018-09-10T13:12:51.320Z,23.60
2018-09-10T13:13:54.883Z,23.60
2018-09-10T13:14:58.329Z,23.60
2018-09-10T13:16:01.760Z,23.60
2018-09-10T13:17:05.194Z,23.50
2018-09-10T13:18:08.601Z,23.50
2018-09-10T13:19:12.024Z,23.50
2018-09-10T13:20:15.474Z,23.50
2018-09-10T13:21:18.891Z,23.40
2018-09-10T13:22:22.276Z,23.40
2018-09-10T13:23:25.734Z,23.40
2018-09-10T13:24:29.132Z,23.40
2018-09-10T13:25:32.704Z,23.40
2018-09-10T13:26:36.144Z,23.40
2018-09-10T13:27:39.546Z,23.40
2018-09-10T13:28:42.984Z,23.40
2018-09-10T13:29:46.669Z,23.40
2018-09-10T13:30:50.607Z,23.40
2018-09-10T13:31:54.057Z,23.40
2018-09-10T13:32:57.530Z,23.40
2018-09-10T13:34:00.924Z,23.40
2018-09-10T13:35:04.478Z,23.40
2018-09-10T13:36:07.912Z,23.50
2018-09-10T13:37:11.408Z,23.50
2018-09-10T13:38:14.868Z,23.50
2018-09-10T13:39:18.360Z,23.50